createdAt,value
2018-10-19T00:00:15.704Z,14.45
2018-10-19T00:01:15.705Z,14.33
2018-10-19T00:02:15.689Z,14.37
2018-10-19T00:03:15.805Z,14.34
2018-10-19T00:04:15.716Z,14.40
2018-10-19T00:05:15.765Z,14.44
2018-10-19T00:06:15.719Z,14.37
2018-10-19T00:07:15.747Z,14.37
2018-10-19T00:08:15.728Z,14.31
2018-10-19T00:09:15.859Z,14.37
2018-10-19T00:10:15.742Z,14.37
2018-10-19T00:11:15.801Z,14.19
2018-10-19T00:12:15.759Z,14.20
2018-10-19T00:13:15.759Z,14.19
2018-10-19T00:14:15.781Z,14.20
2018-10-19T00:15:15.901Z,14.13
2018-10-19T00:16:16.023Z,14.18
2018-10-19T00:17:15.862Z,14.11
2018-10-19T00:18:15.793Z,14.08
2018-10-19T00:19:15.799Z,14.11
2018-10-19T00:20:16.120Z,14.11
2018-10-19T00:21:15.941Z,14.15
2018-10-19T00:22:15.841Z,14.15
2018-10-19T00:23:15.835Z,14.13
2018-10-19T00:24:15.847Z,14.16
2018-10-19T00:25:15.878Z,14.15
2018-10-19T00:26:15.854Z,14.12
2018-10-19T00:27:15.940Z,14.07
2018-10-19T00:28:15.893Z,14.05
2018-10-19T00:29:15.926Z,14.07
2018-10-19T00:30:15.878Z,14.11
2018-10-19T00:31:15.893Z,14.05
2018-10-19T00:32:15.957Z,14.00
2018-10-19T00:33:16.153Z,14.04
2018-10-19T00:34:15.906Z,14.05
2018-10-19T00:35:16.136Z,14.05
2018-10-19T00:36:15.932Z,13.86
2018-10-19T00:37:15.932Z,14.00
2018-10-19T00:38:16.044Z,14.01
2018-10-19T00:39:16.051Z,14.03
2018-10-19T00:40:15.961Z,13.93
2018-10-19T00:41:16.066Z,13.89
2018-10-19T00:42:16.212Z,13.91
2018-10-19T00:43:16.479Z,13.94
2018-10-19T00:44:16.034Z,13.78
2018-10-19T00:45:16.122Z,13.86
2018-10-19T00:46:17.260Z,13.86
2018-10-19T00:47:16.074Z,13.79
2018-10-19T00:48:16.012Z,13.86
2018-10-19T00:49:16.062Z,13.86
2018-10-19T00:50:16.045Z,13.82
2018-10-19T00:51:16.170Z,13.79
2018-10-19T00:52:16.065Z,13.82
2018-10-19T00:53:16.206Z,13.76
2018-10-19T00:54:16.135Z,13.80
2018-10-19T00:55:16.106Z,13.79
2018-10-19T00:56:16.118Z,13.79
2018-10-19T00:57:16.202Z,13.83
2018-10-19T00:58:16.124Z,13.80
2018-10-19T00:59:16.121Z,13.80
2018-10-19T01:00:16.232Z,13.76
2018-10-19T01:01:16.104Z,13.83
2018-10-19T01:02:16.116Z,13.82
2018-10-19T01:03:16.239Z,13.82
2018-10-19T01:04:16.372Z,13.87
2018-10-19T01:05:16.349Z,13.82
2018-10-19T01:06:16.164Z,13.78
2018-10-19T01:07:16.151Z,13.76
2018-10-19T01:08:16.169Z,13.80
2018-10-19T01:09:16.179Z,13.85
2018-10-19T01:10:16.207Z,13.85
2018-10-19T01:11:16.343Z,13.85
2018-10-19T01:12:16.193Z,13.67
2018-10-19T01:13:16.201Z,13.68
2018-10-19T01:14:16.246Z,13.64
2018-10-19T01:15:16.267Z,13.80
2018-10-19T01:16:16.220Z,13.67
2018-10-19T01:17:16.307Z,13.70
2018-10-19T01:18:16.261Z,13.68
2018-10-19T01:19:16.273Z,13.70
2018-10-19T01:20:16.285Z,13.68
2018-10-19T01:21:16.465Z,13.85
2018-10-19T01:22:16.289Z,13.67
2018-10-19T01:23:16.403Z,13.68
2018-10-19T01:24:16.309Z,13.67
2018-10-19T01:25:16.288Z,13.71
2018-10-19T01:26:16.323Z,13.76
2018-10-19T01:27:16.355Z,13.73
2018-10-19T01:28:16.316Z,13.61
2018-10-19T01:29:16.336Z,13.61
2018-10-19T01:30:16.325Z,13.61
2018-10-19T01:31:16.386Z,13.62
2018-10-19T01:32:16.506Z,13.61
2018-10-19T01:33:16.654Z,13.58
2018-10-19T01:34:16.354Z,13.57
2018-10-19T01:35:16.463Z,13.46
2018-10-19T01:36:16.385Z,13.52
2018-10-19T01:37:16.375Z,13.39
2018-10-19T01:38:16.379Z,13.30
2018-10-19T01:39:16.408Z,13.33
2018-10-19T01:40:16.446Z,13.37
2018-10-19T01:41:16.492Z,13.39
2018-10-19T01:42:16.429Z,13.24
2018-10-19T01:43:16.414Z,13.31
2018-10-19T01:44:16.426Z,13.27
2018-10-19T01:45:16.485Z,13.23
2018-10-19T01:46:16.435Z,13.36
2018-10-19T01:47:16.448Z,13.24
2018-10-19T01:48:16.450Z,13.21
2018-10-19T01:49:16.457Z,13.20
2018-10-19T01:50:16.467Z,13.23
2018-10-19T01:51:16.613Z,13.21
2018-10-19T01:52:16.490Z,13.21
2018-10-19T01:53:16.532Z,13.27
2018-10-19T01:54:16.495Z,13.21
2018-10-19T01:55:16.536Z,13.26
2018-10-19T01:56:16.559Z,13.17
2018-10-19T01:57:16.544Z,13.17
2018-10-19T01:58:16.519Z,13.20
2018-10-19T01:59:16.638Z,13.26
2018-10-19T02:00:16.545Z,13.21
2018-10-19T02:01:16.540Z,13.20
2018-10-19T02:02:16.600Z,13.21
2018-10-19T02:03:16.632Z,13.24
2018-10-19T02:04:16.560Z,13.09
2018-10-19T02:05:16.612Z,13.09
2018-10-19T02:06:16.579Z,13.12
2018-10-19T02:07:16.577Z,13.08
2018-10-19T02:08:16.579Z,13.16
2018-10-19T02:09:16.649Z,13.12
2018-10-19T02:10:17.125Z,13.05
2018-10-19T02:11:16.603Z,13.05
2018-10-19T02:12:16.619Z,13.02
2018-10-19T02:13:16.618Z,12.88
2018-10-19T02:14:16.632Z,12.94
2018-10-19T02:15:16.686Z,12.95
2018-10-19T02:16:16.660Z,13.03
2018-10-19T02:17:16.644Z,13.09
2018-10-19T02:18:16.646Z,12.94
2018-10-19T02:19:16.658Z,12.94
2018-10-19T02:20:16.669Z,12.90
2018-10-19T02:21:16.735Z,13.08
2018-10-19T02:22:16.676Z,13.06
2018-10-19T02:23:16.780Z,13.08
2018-10-19T02:24:16.691Z,13.06
2018-10-19T02:25:16.750Z,13.06
2018-10-19T02:26:16.780Z,13.08
2018-10-19T02:27:16.893Z,13.08
2018-10-19T02:28:16.737Z,13.03
2018-10-19T02:29:16.737Z,13.05
2018-10-19T02:30:16.795Z,13.08
2018-10-19T02:31:16.794Z,13.01
2018-10-19T02:32:16.745Z,13.09
2018-10-19T02:33:16.797Z,13.13
2018-10-19T02:34:16.808Z,13.13
2018-10-19T02:35:16.794Z,13.06
2018-10-19T02:36:16.787Z,13.09
2018-10-19T02:37:16.832Z,13.09
2018-10-19T02:38:16.798Z,12.88
2018-10-19T02:39:16.822Z,12.94
2018-10-19T02:40:16.800Z,12.91
2018-10-19T02:41:16.938Z,13.02
2018-10-19T02:42:16.820Z,13.05
2018-10-19T02:43:16.874Z,12.93
2018-10-19T02:44:16.833Z,12.99
2018-10-19T02:45:16.896Z,12.98
2018-10-19T02:46:16.859Z,12.98
2018-10-19T02:47:16.958Z,13.05
2018-10-19T02:48:16.872Z,13.06
2018-10-19T02:49:16.893Z,12.99
2018-10-19T02:50:16.867Z,12.91
2018-10-19T02:51:18.010Z,12.98
2018-10-19T02:52:16.949Z,12.95
2018-10-19T02:53:17.002Z,12.99
2018-10-19T02:54:16.942Z,13.06
2018-10-19T02:55:16.937Z,13.08
2018-10-19T02:56:16.906Z,13.05
2018-10-19T02:57:16.981Z,13.02
2018-10-19T02:58:16.908Z,13.08
2018-10-19T02:59:17.052Z,13.02
2018-10-19T03:00:16.921Z,13.06
2018-10-19T03:01:16.977Z,13.09
2018-10-19T03:02:16.987Z,13.09
2018-10-19T03:03:17.019Z,13.03
2018-10-19T03:04:16.971Z,13.06
2018-10-19T03:05:17.105Z,13.08
2018-10-19T03:06:16.988Z,13.01
2018-10-19T03:07:16.969Z,12.99
2018-10-19T03:08:16.984Z,13.08
2018-10-19T03:09:17.107Z,13.08
2018-10-19T03:10:16.984Z,13.11
2018-10-19T03:11:17.057Z,13.13
2018-10-19T03:12:16.995Z,13.17
2018-10-19T03:13:17.042Z,13.13
2018-10-19T03:14:17.020Z,13.12
2018-10-19T03:15:17.165Z,13.11
2018-10-19T03:16:17.023Z,13.21
2018-10-19T03:17:17.089Z,13.17
2018-10-19T03:18:17.038Z,13.11
2018-10-19T03:19:17.124Z,13.16
2018-10-19T03:20:17.153Z,13.21
2018-10-19T03:21:17.295Z,13.12
2018-10-19T03:22:17.120Z,13.17
2018-10-19T03:23:17.261Z,13.11
2018-10-19T03:24:17.079Z,13.21
2018-10-19T03:25:17.183Z,13.13
2018-10-19T03:26:17.844Z,13.12
2018-10-19T03:27:17.304Z,13.12
2018-10-19T03:28:17.132Z,13.13
2018-10-19T03:29:17.235Z,13.13
2018-10-19T03:30:17.190Z,13.11
2018-10-19T03:31:17.247Z,13.11
2018-10-19T03:32:17.195Z,13.17
2018-10-19T03:33:17.224Z,13.19
2018-10-19T03:34:17.175Z,13.13
2018-10-19T03:35:17.241Z,13.16
2018-10-19T03:36:17.193Z,13.23
2018-10-19T03:37:17.197Z,13.12
2018-10-19T03:38:17.277Z,13.11
2018-10-19T03:39:17.372Z,13.13
2018-10-19T03:40:17.272Z,13.08
2018-10-19T03:41:17.388Z,13.16
2018-10-19T03:42:17.274Z,13.05
2018-10-19T03:43:17.277Z,13.05
2018-10-19T03:44:17.298Z,13.06
2018-10-19T03:45:17.345Z,13.02
2018-10-19T03:46:17.307Z,13.02
2018-10-19T03:47:17.351Z,13.03
2018-10-19T03:48:17.256Z,13.02
2018-10-19T03:49:17.387Z,12.91
2018-10-19T03:50:17.267Z,12.83
2018-10-19T03:51:17.416Z,12.90
2018-10-19T03:52:17.298Z,12.80
2018-10-19T03:53:17.326Z,12.83
2018-10-19T03:54:17.325Z,12.76
2018-10-19T03:55:17.323Z,12.83
2018-10-19T03:56:17.405Z,12.84
2018-10-19T03:57:17.527Z,12.83
2018-10-19T03:58:17.305Z,12.83
2018-10-19T03:59:17.439Z,12.69
2018-10-19T04:00:17.328Z,12.69
2018-10-19T04:01:17.378Z,12.69
2018-10-19T04:02:17.334Z,12.78
2018-10-19T04:03:17.451Z,12.76
2018-10-19T04:04:17.450Z,12.73
2018-10-19T04:05:17.590Z,12.70
2018-10-19T04:06:17.360Z,12.72
2018-10-19T04:07:17.442Z,12.73
2018-10-19T04:08:17.385Z,12.84
2018-10-19T04:09:17.445Z,12.80
2018-10-19T04:10:17.401Z,12.69
2018-10-19T04:11:17.467Z,12.81
2018-10-19T04:12:17.414Z,12.84
2018-10-19T04:13:17.417Z,12.81
2018-10-19T04:14:17.429Z,12.76
2018-10-19T04:15:18.479Z,12.84
2018-10-19T04:16:17.554Z,12.73
2018-10-19T04:17:17.627Z,12.73
2018-10-19T04:18:17.444Z,12.73
2018-10-19T04:19:17.456Z,12.72
2018-10-19T04:20:17.522Z,12.72
2018-10-19T04:21:17.560Z,12.70
2018-10-19T04:22:17.471Z,12.69
2018-10-19T04:23:17.541Z,12.61
2018-10-19T04:24:17.504Z,12.68
2018-10-19T04:25:17.495Z,12.69
2018-10-19T04:26:17.494Z,12.62
2018-10-19T04:27:17.610Z,12.61
2018-10-19T04:28:17.569Z,12.62
2018-10-19T04:29:17.630Z,12.58
2018-10-19T04:30:17.535Z,12.68
2018-10-19T04:31:17.812Z,12.61
2018-10-19T04:32:17.529Z,12.62
2018-10-19T04:33:17.651Z,12.57
2018-10-19T04:34:17.558Z,12.55
2018-10-19T04:35:17.714Z,12.61
2018-10-19T04:36:17.581Z,12.62
2018-10-19T04:37:17.600Z,12.50
2018-10-19T04:38:17.633Z,12.51
2018-10-19T04:39:17.656Z,12.53
2018-10-19T04:40:17.581Z,12.40
2018-10-19T04:41:20.322Z,12.40
2018-10-19T04:42:18.768Z,12.40
2018-10-19T04:43:17.657Z,12.40
2018-10-19T04:44:17.735Z,12.39
2018-10-19T04:45:17.713Z,12.50
2018-10-19T04:46:17.633Z,12.43
2018-10-19T04:47:17.634Z,12.44
2018-10-19T04:48:17.658Z,12.43
2018-10-19T04:49:17.634Z,12.35
2018-10-19T04:50:17.826Z,12.43
2018-10-19T04:51:17.688Z,12.43
2018-10-19T04:52:17.669Z,12.33
2018-10-19T04:53:17.884Z,12.30
2018-10-19T04:54:17.731Z,12.20
2018-10-19T04:55:17.676Z,12.21
2018-10-19T04:56:17.746Z,12.20
2018-10-19T04:57:17.803Z,12.14
2018-10-19T04:58:17.708Z,12.10
2018-10-19T04:59:17.990Z,12.20
2018-10-19T05:00:17.795Z,12.12
2018-10-19T05:01:17.749Z,12.15
2018-10-19T05:02:17.700Z,12.10
2018-10-19T05:03:17.781Z,12.08
2018-10-19T05:04:17.766Z,12.12
2018-10-19T05:05:17.805Z,12.15
2018-10-19T05:06:17.940Z,12.08
2018-10-19T05:07:17.773Z,12.10
2018-10-19T05:08:17.845Z,12.14
2018-10-19T05:09:17.774Z,12.14
2018-10-19T05:10:17.772Z,12.00
2018-10-19T05:11:17.909Z,12.02
2018-10-19T05:12:17.861Z,12.08
2018-10-19T05:13:17.818Z,12.08
2018-10-19T05:14:17.873Z,12.17
2018-10-19T05:15:18.202Z,12.03
2018-10-19T05:16:17.795Z,12.08
2018-10-19T05:17:17.895Z,12.07
2018-10-19T05:18:17.862Z,12.07
2018-10-19T05:19:17.871Z,12.05
2018-10-19T05:20:17.943Z,12.07
2018-10-19T05:21:18.027Z,12.11
2018-10-19T05:22:21.259Z,12.05
2018-10-19T05:23:18.127Z,12.12
2018-10-19T05:24:18.082Z,12.05
2018-10-19T05:25:18.856Z,12.14
2018-10-19T05:26:18.189Z,12.11
2018-10-19T05:27:17.870Z,12.11
2018-10-19T05:28:17.872Z,12.17
2018-10-19T05:29:18.014Z,12.11
2018-10-19T05:30:17.879Z,12.07
2018-10-19T05:31:17.940Z,12.03
2018-10-19T05:32:17.941Z,12.05
2018-10-19T05:33:17.931Z,11.96
2018-10-19T05:34:17.908Z,11.96
2018-10-19T05:35:17.981Z,12.07
2018-10-19T05:36:17.928Z,12.07
2018-10-19T05:37:17.935Z,12.07
2018-10-19T05:38:17.978Z,12.08
2018-10-19T05:39:17.942Z,11.97
2018-10-19T05:40:17.957Z,12.02
2018-10-19T05:41:18.026Z,11.96
2018-10-19T05:42:17.957Z,11.91
2018-10-19T05:43:19.293Z,11.96
2018-10-19T05:44:17.973Z,11.96
2018-10-19T05:45:17.973Z,11.95
2018-10-19T05:46:17.989Z,11.89
2018-10-19T05:47:18.012Z,11.99
2018-10-19T05:48:18.000Z,11.91
2018-10-19T05:49:18.050Z,11.91
2018-10-19T05:50:18.017Z,11.88
2018-10-19T05:51:18.022Z,11.97
2018-10-19T05:52:18.033Z,11.96
2018-10-19T05:53:18.115Z,11.89
2018-10-19T05:54:18.043Z,11.95
2018-10-19T05:55:18.038Z,11.96
2018-10-19T05:56:18.114Z,12.05
2018-10-19T05:57:18.055Z,12.03
2018-10-19T05:58:18.064Z,12.07
2018-10-19T05:59:18.177Z,12.07
2018-10-19T06:00:18.078Z,12.11
2018-10-19T06:01:18.131Z,12.03
2018-10-19T06:02:18.201Z,12.03
2018-10-19T06:03:18.091Z,12.05
2018-10-19T06:04:18.094Z,12.05
2018-10-19T06:05:18.111Z,12.07
2018-10-19T06:06:18.116Z,12.15
2018-10-19T06:07:18.222Z,11.99
2018-10-19T06:08:18.188Z,11.95
2018-10-19T06:09:18.133Z,11.99
2018-10-19T06:10:18.145Z,11.95
2018-10-19T06:11:18.160Z,11.91
2018-10-19T06:12:18.153Z,12.02
2018-10-19T06:13:18.156Z,11.93
2018-10-19T06:14:18.173Z,11.88
2018-10-19T06:15:18.173Z,11.93
2018-10-19T06:16:18.176Z,11.93
2018-10-19T06:17:18.432Z,12.00
2018-10-19T06:18:18.205Z,12.03
2018-10-19T06:19:18.190Z,12.07
2018-10-19T06:20:18.215Z,12.08
2018-10-19T06:21:18.296Z,12.03
2018-10-19T06:22:18.264Z,12.05
2018-10-19T06:23:18.275Z,11.99
2018-10-19T06:24:18.232Z,12.05
2018-10-19T06:25:18.249Z,12.02
2018-10-19T06:26:18.280Z,11.97
2018-10-19T06:27:18.258Z,12.02
2018-10-19T06:28:18.279Z,11.99
2018-10-19T06:29:18.275Z,12.15
2018-10-19T06:30:18.283Z,12.17
2018-10-19T06:31:18.265Z,12.14
2018-10-19T06:32:18.337Z,12.07
2018-10-19T06:33:18.286Z,12.05
2018-10-19T06:34:18.307Z,12.14
2018-10-19T06:35:18.271Z,12.11
2018-10-19T06:36:18.299Z,12.23
2018-10-19T06:37:18.313Z,12.10
2018-10-19T06:38:19.246Z,12.08
2018-10-19T06:39:18.338Z,12.07
2018-10-19T06:40:18.330Z,12.02
2018-10-19T06:41:18.430Z,12.00
2018-10-19T06:42:18.321Z,12.07
2018-10-19T06:43:18.345Z,12.12
2018-10-19T06:44:18.393Z,12.17
2018-10-19T06:45:18.371Z,12.20
2018-10-19T06:46:18.369Z,12.17
2018-10-19T06:47:18.472Z,12.25
2018-10-19T06:48:18.361Z,12.35
2018-10-19T06:49:18.366Z,12.23
2018-10-19T06:50:18.646Z,12.15
2018-10-19T06:51:18.398Z,12.21
2018-10-19T06:52:18.423Z,12.15
2018-10-19T06:53:18.418Z,12.26
2018-10-19T06:54:18.400Z,12.17
2018-10-19T06:55:18.428Z,12.08
2018-10-19T06:56:18.486Z,12.11
2018-10-19T06:57:18.443Z,12.10
2018-10-19T06:58:18.440Z,11.99
2018-10-19T06:59:18.461Z,12.11
2018-10-19T07:00:18.453Z,12.10
2018-10-19T07:01:18.472Z,12.15
2018-10-19T07:02:18.512Z,12.18
2018-10-19T07:03:18.513Z,12.10
2018-10-19T07:04:18.498Z,12.08
2018-10-19T07:05:18.489Z,12.18
2018-10-19T07:06:18.498Z,12.15
2018-10-19T07:07:18.934Z,12.29
2018-10-19T07:08:18.545Z,12.21
2018-10-19T07:09:18.545Z,12.36
2018-10-19T07:10:18.539Z,12.30
2018-10-19T07:11:19.576Z,12.29
2018-10-19T07:12:18.561Z,12.39
2018-10-19T07:13:19.705Z,12.45
2018-10-19T07:14:18.872Z,12.37
2018-10-19T07:15:19.412Z,12.32
2018-10-19T07:16:18.908Z,12.39
2018-10-19T07:17:18.574Z,12.39
2018-10-19T07:18:18.584Z,12.47
2018-10-19T07:19:18.575Z,12.40
2018-10-19T07:20:18.587Z,12.44
2018-10-19T07:21:18.609Z,12.40
2018-10-19T07:22:18.586Z,12.44
2018-10-19T07:23:18.619Z,12.44
2018-10-19T07:24:18.747Z,12.45
2018-10-19T07:25:18.626Z,12.43
2018-10-19T07:26:18.645Z,12.40
2018-10-19T07:27:18.671Z,12.40
2018-10-19T07:28:18.665Z,12.39
2018-10-19T07:29:18.713Z,12.44
2018-10-19T07:30:18.707Z,12.30
2018-10-19T07:31:18.719Z,12.30
2018-10-19T07:32:18.689Z,12.36
2018-10-19T07:33:18.708Z,12.33
2018-10-19T07:34:18.705Z,12.43
2018-10-19T07:35:18.807Z,12.43
2018-10-19T07:36:18.736Z,12.43
2018-10-19T07:37:18.934Z,12.44
2018-10-19T07:38:18.733Z,12.53
2018-10-19T07:39:18.823Z,12.51
2018-10-19T07:40:18.773Z,12.51
2018-10-19T07:41:18.787Z,12.53
2018-10-19T07:42:18.901Z,12.50
2018-10-19T07:43:18.756Z,12.63
2018-10-19T07:44:18.763Z,12.61
2018-10-19T07:45:18.782Z,12.65
2018-10-19T07:46:18.781Z,12.55
2018-10-19T07:47:19.078Z,12.61
2018-10-19T07:48:18.830Z,12.57
2018-10-19T07:49:18.960Z,12.70
2018-10-19T07:50:18.808Z,12.69
2018-10-19T07:51:18.827Z,12.73
2018-10-19T07:52:18.886Z,12.80
2018-10-19T07:53:18.861Z,12.76
2018-10-19T07:54:18.863Z,12.75
2018-10-19T07:55:18.854Z,12.65
2018-10-19T07:56:18.869Z,12.84
2018-10-19T07:57:18.856Z,12.83
2018-10-19T07:58:19.048Z,12.76
2018-10-19T07:59:18.848Z,12.78
2018-10-19T08:00:18.939Z,12.90
2018-10-19T08:01:18.932Z,12.78
2018-10-19T08:02:18.877Z,12.81
2018-10-19T08:03:18.989Z,12.76
2018-10-19T08:04:18.987Z,12.90
2018-10-19T08:05:18.929Z,12.83
2018-10-19T08:06:18.910Z,12.73
2018-10-19T08:07:19.048Z,12.87
2018-10-19T08:08:18.968Z,12.88
2018-10-19T08:09:18.995Z,12.93
2018-10-19T08:10:19.092Z,12.94
2018-10-19T08:11:19.016Z,12.93
2018-10-19T08:12:18.972Z,12.91
2018-10-19T08:13:19.009Z,13.01
2018-10-19T08:14:19.266Z,12.94
2018-10-19T08:15:19.003Z,12.99
2018-10-19T08:16:19.511Z,13.03
2018-10-19T08:17:19.098Z,13.06
2018-10-19T08:18:19.038Z,13.08
2018-10-19T08:19:19.107Z,13.03
2018-10-19T08:20:19.029Z,13.13
2018-10-19T08:21:19.067Z,13.12
2018-10-19T08:22:19.143Z,13.21
2018-10-19T08:23:19.055Z,13.21
2018-10-19T08:24:19.252Z,13.24
2018-10-19T08:25:19.068Z,13.23
2018-10-19T08:26:19.140Z,13.28
2018-10-19T08:27:19.097Z,13.42
2018-10-19T08:28:19.242Z,13.45
2018-10-19T08:29:19.175Z,13.46
2018-10-19T08:30:19.080Z,13.55
2018-10-19T08:31:19.112Z,13.50
2018-10-19T08:32:19.219Z,13.57
2018-10-19T08:33:19.108Z,13.58
2018-10-19T08:34:19.187Z,13.57
2018-10-19T08:35:19.140Z,13.67
2018-10-19T08:36:19.202Z,13.71
2018-10-19T08:37:19.147Z,13.71
2018-10-19T08:38:19.186Z,13.70
2018-10-19T08:39:19.155Z,13.61
2018-10-19T08:40:19.249Z,13.62
2018-10-19T08:41:19.194Z,13.55
2018-10-19T08:42:19.145Z,13.52
2018-10-19T08:43:19.366Z,13.61
2018-10-19T08:44:19.153Z,13.75
2018-10-19T08:45:19.231Z,13.64
2018-10-19T08:46:19.169Z,13.70
2018-10-19T08:47:19.166Z,13.65
2018-10-19T08:48:19.201Z,13.65
2018-10-19T08:49:19.219Z,13.78
2018-10-19T08:50:19.237Z,13.80
2018-10-19T08:51:19.204Z,13.83
2018-10-19T08:52:19.273Z,13.94
2018-10-19T08:53:19.268Z,13.91
2018-10-19T08:54:19.317Z,13.93
2018-10-19T08:55:19.228Z,13.83
2018-10-19T08:56:19.245Z,13.78
2018-10-19T08:57:19.269Z,13.79
2018-10-19T08:58:19.292Z,13.82
2018-10-19T08:59:19.465Z,13.80
2018-10-19T09:00:19.394Z,13.82
2018-10-19T09:01:19.399Z,13.83
2018-10-19T09:02:19.330Z,13.80
2018-10-19T09:03:19.287Z,13.83
2018-10-19T09:04:19.346Z,13.86
2018-10-19T09:05:19.363Z,13.60
2018-10-19T09:06:19.332Z,13.50
2018-10-19T09:07:19.330Z,13.55
2018-10-19T09:08:19.339Z,13.67
2018-10-19T09:09:19.348Z,13.70
2018-10-19T09:10:19.383Z,13.67
2018-10-19T09:11:19.526Z,13.67
2018-10-19T09:12:19.389Z,13.75
2018-10-19T09:13:19.395Z,13.68
2018-10-19T09:14:19.388Z,13.73
2018-10-19T09:15:19.458Z,13.65
2018-10-19T09:16:19.568Z,13.67
2018-10-19T09:17:19.401Z,13.67
2018-10-19T09:18:19.500Z,13.67
2018-10-19T09:19:19.414Z,13.58
2018-10-19T09:20:19.443Z,13.68
2018-10-19T09:21:19.428Z,13.60
2018-10-19T09:22:19.422Z,13.62
2018-10-19T09:23:19.476Z,13.62
2018-10-19T09:24:19.462Z,13.60
2018-10-19T09:25:19.482Z,13.57
2018-10-19T09:26:19.463Z,13.58
2018-10-19T09:27:19.481Z,13.58
2018-10-19T09:28:19.517Z,13.57
2018-10-19T09:29:19.575Z,13.55
2018-10-19T09:30:19.503Z,13.55
2018-10-19T09:31:19.502Z,13.52
2018-10-19T09:32:19.510Z,13.52
2018-10-19T09:33:19.558Z,13.50
2018-10-19T09:34:19.549Z,13.54
2018-10-19T09:35:19.625Z,13.61
2018-10-19T09:36:19.726Z,13.64
2018-10-19T09:37:19.520Z,13.65
2018-10-19T09:38:19.553Z,13.68
2018-10-19T09:39:19.547Z,13.64
2018-10-19T09:40:19.657Z,13.65
2018-10-19T09:41:19.701Z,13.75
2018-10-19T09:42:19.558Z,13.70
2018-10-19T09:43:19.576Z,13.58
2018-10-19T09:44:19.719Z,13.62
2018-10-19T09:45:19.591Z,13.60
2018-10-19T09:46:19.633Z,13.71
2018-10-19T09:47:19.641Z,13.55
2018-10-19T09:48:19.607Z,13.57
2018-10-19T09:49:19.662Z,13.65
2018-10-19T09:50:19.618Z,13.67
2018-10-19T09:51:19.701Z,13.57
2018-10-19T09:52:19.642Z,13.73
2018-10-19T09:53:19.670Z,13.61
2018-10-19T09:54:19.689Z,13.55
2018-10-19T09:55:19.817Z,13.62
2018-10-19T09:56:19.759Z,13.70
2018-10-19T09:57:19.692Z,13.67
2018-10-19T09:58:19.700Z,13.71
2018-10-19T09:59:19.721Z,13.67
2018-10-19T10:00:19.711Z,13.70
2018-10-19T10:01:19.685Z,13.67
2018-10-19T10:02:19.784Z,13.68
2018-10-19T10:03:19.727Z,13.65
2018-10-19T10:04:19.808Z,13.80
2018-10-19T10:05:19.739Z,13.68
2018-10-19T10:06:19.744Z,13.83
2018-10-19T10:07:19.755Z,13.79
2018-10-19T10:08:19.842Z,13.65
2018-10-19T10:09:19.746Z,13.67
2018-10-19T10:10:19.753Z,13.79
2018-10-19T10:11:19.758Z,13.82
2018-10-19T10:12:19.838Z,13.86
2018-10-19T10:13:19.772Z,13.85
2018-10-19T10:14:19.786Z,13.86
2018-10-19T10:15:19.863Z,13.91
2018-10-19T10:16:19.835Z,13.94
2018-10-19T10:17:19.833Z,13.93
2018-10-19T10:18:19.821Z,13.97
2018-10-19T10:19:19.828Z,14.00
2018-10-19T10:20:19.835Z,13.95
2018-10-19T10:21:19.872Z,13.98
2018-10-19T10:22:19.876Z,13.94
2018-10-19T10:23:19.970Z,14.00
2018-10-19T10:24:20.553Z,14.05
2018-10-19T10:25:19.986Z,14.05
2018-10-19T10:26:19.873Z,14.11
2018-10-19T10:27:20.072Z,14.11
2018-10-19T10:28:20.192Z,14.16
2018-10-19T10:29:19.946Z,14.19
2018-10-19T10:30:19.921Z,14.20
2018-10-19T10:31:20.198Z,14.16
2018-10-19T10:32:20.940Z,14.18
2018-10-19T10:33:20.157Z,14.26
2018-10-19T10:34:20.132Z,14.25
2018-10-19T10:35:19.946Z,14.19
2018-10-19T10:36:19.934Z,14.12
2018-10-19T10:37:19.971Z,14.18
2018-10-19T10:38:20.007Z,14.20
2018-10-19T10:39:20.122Z,14.26
2018-10-19T10:40:20.024Z,14.28
2018-10-19T10:41:19.995Z,14.34
2018-10-19T10:42:20.007Z,14.36
2018-10-19T10:43:20.088Z,14.43
2018-10-19T10:44:20.025Z,14.45
2018-10-19T10:45:20.017Z,14.48
2018-10-19T10:46:20.055Z,14.41
2018-10-19T10:47:20.045Z,14.36
2018-10-19T10:48:20.108Z,14.48
2018-10-19T10:49:20.114Z,14.51
2018-10-19T10:50:20.065Z,14.49
2018-10-19T10:51:20.089Z,14.52
2018-10-19T10:52:20.070Z,14.56
2018-10-19T10:53:20.082Z,14.43
2018-10-19T10:54:20.102Z,14.44
2018-10-19T10:55:20.114Z,14.41
2018-10-19T10:56:20.253Z,14.37
2018-10-19T10:57:20.083Z,14.41
2018-10-19T10:58:20.177Z,14.49
2018-10-19T10:59:20.108Z,14.43
2018-10-19T11:00:20.124Z,14.45
2018-10-19T11:01:20.149Z,14.45
2018-10-19T11:02:20.137Z,14.58
2018-10-19T11:03:20.167Z,14.43
2018-10-19T11:04:20.146Z,14.45
2018-10-19T11:05:20.141Z,14.48
2018-10-19T11:06:20.232Z,14.52
2018-10-19T11:07:20.266Z,14.51
2018-10-19T11:08:20.761Z,14.53
2018-10-19T11:09:20.220Z,14.52
2018-10-19T11:10:20.259Z,14.45
2018-10-19T11:11:20.203Z,14.49
2018-10-19T11:12:20.236Z,14.51
2018-10-19T11:13:20.500Z,14.51
2018-10-19T11:14:20.827Z,14.51
2018-10-19T11:15:20.233Z,14.53
2018-10-19T11:16:20.226Z,14.51
2018-10-19T11:17:20.281Z,14.53
2018-10-19T11:18:20.238Z,14.52
2018-10-19T11:19:20.255Z,14.41
2018-10-19T11:20:20.287Z,14.37
2018-10-19T11:21:20.355Z,14.53
2018-10-19T11:22:20.304Z,14.51
2018-10-19T11:23:20.283Z,14.52
2018-10-19T11:24:20.365Z,14.52
2018-10-19T11:25:20.299Z,14.44
2018-10-19T11:26:20.369Z,14.53
2018-10-19T11:27:20.340Z,14.63
2018-10-19T11:28:20.336Z,14.62
2018-10-19T11:29:20.351Z,14.58
2018-10-19T11:30:20.325Z,14.52
2018-10-19T11:31:20.400Z,14.61
2018-10-19T11:32:20.413Z,14.62
2018-10-19T11:33:20.399Z,14.62
2018-10-19T11:34:20.391Z,14.59
2018-10-19T11:35:20.397Z,14.66
2018-10-19T11:36:20.421Z,14.66
2018-10-19T11:37:20.466Z,14.68
2018-10-19T11:38:20.452Z,14.59
2018-10-19T11:39:20.419Z,14.68
2018-10-19T11:40:20.442Z,14.67
2018-10-19T11:41:20.459Z,14.74
2018-10-19T11:42:20.486Z,14.70
2018-10-19T11:43:20.439Z,14.63
2018-10-19T11:44:20.494Z,14.73
2018-10-19T11:45:20.455Z,14.74
2018-10-19T11:46:20.911Z,14.74
2018-10-19T11:47:20.481Z,14.71
2018-10-19T11:48:20.507Z,14.67
2018-10-19T11:49:20.589Z,14.78
2018-10-19T11:50:20.543Z,14.77
2018-10-19T11:51:20.629Z,14.77
2018-10-19T11:52:20.518Z,14.78
2018-10-19T11:53:20.588Z,14.85
2018-10-19T11:54:20.549Z,14.74
2018-10-19T11:55:20.625Z,14.79
2018-10-19T11:56:20.558Z,14.82
2018-10-19T11:57:20.593Z,14.67
2018-10-19T11:58:20.537Z,14.77
2018-10-19T11:59:20.560Z,14.67
2018-10-19T12:00:20.594Z,14.81
2018-10-19T12:01:20.575Z,14.73
2018-10-19T12:02:20.635Z,14.82
2018-10-19T12:03:20.615Z,14.77
2018-10-19T12:04:20.679Z,14.81
2018-10-19T12:05:20.625Z,14.89
2018-10-19T12:06:20.610Z,14.82
2018-10-19T12:07:20.671Z,14.86
2018-10-19T12:08:20.652Z,14.82
2018-10-19T12:09:20.626Z,14.82
2018-10-19T12:10:20.681Z,14.89
2018-10-19T12:11:20.688Z,14.85
2018-10-19T12:12:20.670Z,14.87
2018-10-19T12:13:20.734Z,14.87
2018-10-19T12:14:20.722Z,14.82
2018-10-19T12:15:20.662Z,14.87
2018-10-19T12:16:20.919Z,14.87
2018-10-19T12:17:20.709Z,14.78
2018-10-19T12:18:20.816Z,14.87
2018-10-19T12:19:20.700Z,14.77
2018-10-19T12:20:20.749Z,14.87
2018-10-19T12:21:20.782Z,14.93
2018-10-19T12:22:20.916Z,14.93
2018-10-19T12:23:20.763Z,14.86
2018-10-19T12:24:20.959Z,14.92
2018-10-19T12:25:20.811Z,14.94
2018-10-19T12:26:20.827Z,14.87
2018-10-19T12:27:20.784Z,14.94
2018-10-19T12:28:20.848Z,14.89
2018-10-19T12:29:20.985Z,15.00
2018-10-19T12:30:20.843Z,14.96
2018-10-19T12:31:20.812Z,14.93
2018-10-19T12:32:21.776Z,14.90
2018-10-19T12:33:20.865Z,14.93
2018-10-19T12:34:21.047Z,14.89
2018-10-19T12:35:21.288Z,14.93
2018-10-19T12:36:21.024Z,14.93
2018-10-19T12:37:20.908Z,15.07
2018-10-19T12:38:21.766Z,15.02
2018-10-19T12:39:20.968Z,15.04
2018-10-19T12:40:21.320Z,15.02
2018-10-19T12:41:20.977Z,15.10
2018-10-19T12:42:20.897Z,15.05
2018-10-19T12:43:20.987Z,15.07
2018-10-19T12:44:20.923Z,15.08
2018-10-19T12:45:20.991Z,15.07
2018-10-19T12:46:20.984Z,15.10
2018-10-19T12:47:20.984Z,15.11
2018-10-19T12:48:20.950Z,15.14
2018-10-19T12:49:20.995Z,15.19
2018-10-19T12:50:21.001Z,15.22
2018-10-19T12:51:20.948Z,15.22
2018-10-19T12:52:20.999Z,15.18